createdAt,value
2023-03-11T00:02:14.800Z,97723.20
2023-03-11T00:07:14.457Z,97724.00
2023-03-11T00:12:13.714Z,97723.20
2023-03-11T00:17:12.887Z,97724.00
2023-03-11T00:22:12.211Z,97717.40
2023-03-11T00:27:12.016Z,97716.40
2023-03-11T00:32:12.291Z,97709.00
2023-03-11T00:37:12.143Z,97698.80
2023-03-11T00:42:11.519Z,97696.00
2023-03-11T00:47:13.150Z,97693.40
2023-03-11T00:52:12.959Z,97691.20
2023-03-11T00:57:11.966Z,97692.40
2023-03-11T01:02:12.207Z,97677.80
2023-03-11T01:07:11.840Z,97671.40
2023-03-11T01:12:12.117Z,97670.60
2023-03-11T01:17:11.974Z,97666.40
2023-03-11T01:22:11.704Z,97665.20
2023-03-11T01:27:10.962Z,97662.20
2023-03-11T01:32:11.515Z,97656.00
2023-03-11T01:37:10.861Z,97657.00
2023-03-11T01:42:11.608Z,97660.40
2023-03-11T01:47:39.044Z,97650.40
2023-03-11T01:52:41.492Z,97648.00
2023-03-11T01:57:43.728Z,97641.00
2023-03-11T02:02:51.752Z,97637.60
2023-03-11T02:07:57.227Z,97638.20
2023-03-11T02:12:58.890Z,97634.00
2023-03-11T02:18:00.650Z,97637.40
2023-03-11T02:23:03.670Z,97638.00
2023-03-11T02:28:05.119Z,97626.40
2023-03-11T02:33:07.415Z,97623.40
2023-03-11T02:38:07.375Z,97626.60
2023-03-11T02:43:14.323Z,97629.00
2023-03-11T02:48:16.930Z,97621.00
2023-03-11T02:53:16.598Z,97616.00
2023-03-11T02:58:15.996Z,97620.60
2023-03-11T03:03:16.146Z,97614.40
2023-03-11T03:08:15.360Z,97616.20
2023-03-11T03:13:15.759Z,97612.20
2023-03-11T03:18:15.278Z,97613.60
2023-03-11T03:23:14.863Z,97600.00
2023-03-11T03:28:15.518Z,97606.20
2023-03-11T03:33:17.526Z,97609.40
2023-03-11T03:38:17.539Z,97606.40
2023-03-11T03:43:18.301Z,97605.60
2023-03-11T03:48:18.431Z,97608.00
2023-03-11T03:53:18.041Z,97605.00
2023-03-11T03:58:17.920Z,97603.20
2023-03-11T04:03:17.837Z,97606.20
2023-03-11T04:08:24.375Z,97598.20
2023-03-11T04:13:24.273Z,97596.20
2023-03-11T04:18:24.295Z,97595.40
2023-03-11T04:23:23.557Z,97591.00
2023-03-11T04:28:23.176Z,97584.40
2023-03-11T04:33:22.891Z,97578.60
2023-03-11T04:38:24.353Z,97572.60
2023-03-11T04:43:24.429Z,97574.20
2023-03-11T04:48:24.908Z,97585.20
2023-03-11T04:53:24.375Z,97591.00
2023-03-11T04:58:24.479Z,97582.40
2023-03-11T05:03:25.347Z,97584.20
2023-03-11T05:08:25.627Z,97592.00
2023-03-11T05:13:27.030Z,97594.80
2023-03-11T05:18:26.600Z,97597.80
2023-03-11T05:23:28.329Z,97588.20
2023-03-11T05:28:27.673Z,97586.60
2023-03-11T05:33:32.736Z,97592.40
2023-03-11T05:38:32.747Z,97591.80
2023-03-11T05:43:32.103Z,97591.60
2023-03-11T05:48:31.839Z,97599.80
2023-03-11T05:53:31.292Z,97594.80
2023-03-11T05:58:32.575Z,97595.00
2023-03-11T06:03:32.482Z,97592.80
2023-03-11T06:08:38.269Z,97590.80
2023-03-11T06:13:39.297Z,97593.80
2023-03-11T06:18:39.071Z,97595.00
2023-03-11T06:23:38.973Z,97597.00
2023-03-11T06:28:38.628Z,97606.00
2023-03-11T06:33:39.002Z,97611.80
2023-03-11T06:38:39.900Z,97623.60
2023-03-11T06:43:40.295Z,97621.80
2023-03-11T06:48:40.867Z,97625.40
2023-03-11T06:53:41.300Z,97630.60
2023-03-11T06:58:43.819Z,97639.20
2023-03-11T07:03:47.070Z,97636.20
2023-03-11T07:08:47.472Z,97636.20
2023-03-11T07:13:47.551Z,97648.40
2023-03-11T07:18:48.488Z,97650.00
2023-03-11T07:23:50.975Z,97656.00
2023-03-11T07:28:50.552Z,97648.40
2023-03-11T07:33:50.406Z,97652.40
2023-03-11T07:38:56.225Z,97656.20
2023-03-11T07:44:00.416Z,97658.80
2023-03-11T07:49:00.753Z,97664.40
2023-03-11T07:54:03.598Z,97667.40
2023-03-11T07:59:06.176Z,97673.60
2023-03-11T08:04:06.846Z,97677.80
2023-03-11T08:09:10.045Z,97679.40
2023-03-11T08:14:10.337Z,97680.40
2023-03-11T08:19:09.267Z,97693.40
2023-03-11T08:24:12.001Z,97693.60
2023-03-11T08:29:11.268Z,97698.20
2023-03-11T08:34:13.212Z,97703.40
2023-03-11T08:39:12.990Z,97708.60
2023-03-11T08:44:11.679Z,97718.80
2023-03-11T08:49:11.406Z,97726.60
2023-03-11T08:54:11.134Z,97731.40
2023-03-11T08:59:09.827Z,97736.80
2023-03-11T09:04:09.804Z,97747.80
2023-03-11T09:09:09.388Z,97756.60
2023-03-11T09:14:08.684Z,97758.60
2023-03-11T09:19:08.506Z,97770.60
2023-03-11T09:24:09.846Z,97783.60
2023-03-11T09:29:08.756Z,97787.00
2023-03-11T09:34:08.742Z,97793.00
2023-03-11T09:39:07.808Z,97795.20
2023-03-11T09:44:21.875Z,97811.60
2023-03-11T09:49:33.008Z,97831.40
2023-03-11T09:54:39.674Z,97845.60
2023-03-11T09:59:43.739Z,97852.20
2023-03-11T10:04:52.684Z,97864.80
2023-03-11T10:09:56.923Z,97876.20
2023-03-11T10:15:18.048Z,97895.80
2023-03-11T10:20:28.688Z,97896.60
2023-03-11T10:25:37.531Z,97912.00
2023-03-11T10:30:43.817Z,97923.60
2023-03-11T10:35:46.958Z,97934.00
2023-03-11T10:40:52.203Z,97927.80
2023-03-11T10:45:55.765Z,97938.80
2023-03-11T10:51:18.255Z,97955.80
2023-03-11T10:56:41.266Z,97968.40
2023-03-11T11:01:40.501Z,97984.20
2023-03-11T11:06:40.898Z,98001.60
2023-03-11T11:11:41.102Z,98022.40
2023-03-11T11:16:42.017Z,98017.60
2023-03-11T11:21:50.250Z,98033.20
2023-03-11T11:27:15.602Z,98045.80
2023-03-11T11:32:27.688Z,98059.60
2023-03-11T11:37:32.202Z,98064.20
2023-03-11T11:42:34.810Z,98068.80
2023-03-11T11:47:38.169Z,98083.00
2023-03-11T11:52:45.493Z,98093.80
2023-03-11T11:57:45.162Z,98112.00
2023-03-11T12:03:05.524Z,98137.40
2023-03-11T12:08:17.358Z,98151.40
2023-03-11T12:14:04.476Z,98161.60
2023-03-11T12:19:15.123Z,98173.00
2023-03-11T12:24:34.053Z,98185.60
2023-03-11T12:29:43.259Z,98202.60
2023-03-11T12:34:44.442Z,98226.60
2023-03-11T12:39:44.319Z,98234.20
2023-03-11T12:44:45.325Z,98246.60
2023-03-11T12:49:46.539Z,98264.00
2023-03-11T12:54:47.425Z,98271.80
2023-03-11T13:00:29.244Z,98300.80
2023-03-11T13:05:44.084Z,98315.00
2023-03-11T13:10:48.354Z,98334.00
2023-03-11T13:15:47.633Z,98340.20
2023-03-11T13:21:03.409Z,98348.60
2023-03-11T13:26:41.737Z,98360.80
2023-03-11T13:32:18.811Z,98384.20
2023-03-11T13:37:34.351Z,98399.80
2023-03-11T13:42:39.107Z,98426.40
2023-03-11T13:47:44.789Z,98436.40
2023-03-11T13:52:53.806Z,98457.20
2023-03-11T13:57:58.346Z,98461.40
2023-03-11T14:03:00.922Z,98473.20
2023-03-11T14:08:20.975Z,98483.40
2023-03-11T14:13:21.904Z,98503.20
2023-03-11T14:18:37.005Z,98512.00
2023-03-11T14:23:44.111Z,98528.80
2023-03-11T14:28:48.631Z,98525.00
2023-03-11T14:33:58.728Z,98548.60
2023-03-11T14:38:58.034Z,98551.80
2023-03-11T14:43:58.987Z,98566.00
2023-03-11T14:49:04.492Z,98579.60
2023-03-11T14:54:17.293Z,98574.60
2023-03-11T14:59:26.996Z,98588.20
2023-03-11T15:04:34.595Z,98601.20
2023-03-11T15:09:34.665Z,98614.20
2023-03-11T15:14:37.101Z,98621.80
2023-03-11T15:19:38.564Z,98631.20
2023-03-11T15:24:38.495Z,98650.40
2023-03-11T15:29:39.995Z,98654.20
2023-03-11T15:34:39.505Z,98659.20
2023-03-11T15:39:53.271Z,98671.20
2023-03-11T15:45:17.366Z,98674.60
2023-03-11T15:50:46.713Z,98690.60
2023-03-11T15:55:52.070Z,98708.60
2023-03-11T16:00:56.454Z,98720.80
2023-03-11T16:05:55.881Z,98743.80
2023-03-11T16:10:55.644Z,98742.80
2023-03-11T16:15:54.755Z,98756.40
2023-03-11T16:20:56.753Z,98754.00
2023-03-11T16:26:00.782Z,98771.60
2023-03-11T16:30:59.525Z,98784.80
2023-03-11T16:35:58.702Z,98798.80
2023-03-11T16:41:05.155Z,98803.00
2023-03-11T16:46:04.166Z,98819.20
2023-03-11T16:51:04.033Z,98830.60
2023-03-11T16:56:03.169Z,98841.00
2023-03-11T17:01:03.170Z,98854.40
2023-03-11T17:06:07.872Z,98874.40
2023-03-11T17:11:07.334Z,98886.80
2023-03-11T17:16:07.775Z,98896.00
2023-03-11T17:21:12.729Z,98907.40
2023-03-11T17:26:16.993Z,98920.80
2023-03-11T17:31:21.334Z,98930.80
2023-03-11T17:36:21.407Z,98939.60
2023-03-11T17:41:25.524Z,98943.40
2023-03-11T17:46:25.362Z,98953.40
2023-03-11T17:51:28.387Z,98963.20
2023-03-11T17:56:28.215Z,98979.60
2023-03-11T18:01:30.795Z,98998.80
2023-03-11T18:06:30.366Z,98993.60
2023-03-11T18:11:32.010Z,99001.20
2023-03-11T18:16:33.871Z,99010.60
2023-03-11T18:21:35.141Z,99012.60
2023-03-11T18:26:34.845Z,99030.00
2023-03-11T18:31:35.223Z,99032.60
2023-03-11T18:36:37.925Z,99047.80
2023-03-11T18:41:39.073Z,99061.80
2023-03-11T18:46:38.782Z,99078.60
2023-03-11T18:51:38.514Z,99081.20
2023-03-11T18:56:37.533Z,99086.00
2023-03-11T19:01:36.513Z,99101.00
2023-03-11T19:06:36.130Z,99102.60
2023-03-11T19:11:36.304Z,99109.80
2023-03-11T19:16:35.829Z,99116.20
2023-03-11T19:21:35.831Z,99134.60
2023-03-11T19:26:44.732Z,99134.40
2023-03-11T19:31:45.988Z,99137.20
2023-03-11T19:36:47.037Z,99147.20
2023-03-11T19:41:45.901Z,99162.60
2023-03-11T19:46:45.337Z,99167.40
2023-03-11T19:51:50.159Z,99170.80
2023-03-11T19:56:51.368Z,99183.20
2023-03-11T20:01:50.545Z,99180.60
2023-03-11T20:06:50.104Z,99186.60
2023-03-11T20:11:49.231Z,99192.60
2023-03-11T20:16:48.592Z,99206.40
2023-03-11T20:21:48.335Z,99217.00
2023-03-11T20:26:49.947Z,99216.80
2023-03-11T20:31:50.702Z,99218.20
2023-03-11T20:36:51.144Z,99227.00
2023-03-11T20:41:50.604Z,99242.80
2023-03-11T20:46:50.422Z,99236.60
2023-03-11T20:51:49.923Z,99239.60
2023-03-11T20:56:51.026Z,99248.20
2023-03-11T21:01:51.007Z,99263.40
2023-03-11T21:06:52.554Z,99259.60
2023-03-11T21:11:52.088Z,99262.80
2023-03-11T21:16:53.260Z,99265.00
2023-03-11T21:21:53.121Z,99265.60
2023-03-11T21:26:53.385Z,99269.20
2023-03-11T21:31:53.365Z,99272.40
2023-03-11T21:36:52.665Z,99282.40
2023-03-11T21:41:53.468Z,99282.60
2023-03-11T21:46:53.552Z,99283.80
2023-03-11T21:51:53.021Z,99294.40
2023-03-11T21:56:52.807Z,99289.60
2023-03-11T22:01:51.625Z,99304.60
2023-03-11T22:06:51.397Z,99302.20
2023-03-11T22:11:50.653Z,99302.40
2023-03-11T22:16:50.063Z,99304.20
2023-03-11T22:21:50.899Z,99303.40
2023-03-11T22:26:49.968Z,99311.20
2023-03-11T22:31:49.933Z,99321.60
2023-03-11T22:36:49.164Z,99323.80
2023-03-11T22:41:47.758Z,99323.60
2023-03-11T22:46:47.641Z,99330.80
2023-03-11T22:51:47.203Z,99344.40
2023-03-11T22:56:46.397Z,99347.00
2023-03-11T23:01:46.164Z,99344.00
2023-03-11T23:06:45.951Z,99341.20
2023-03-11T23:11:45.112Z,99343.80
2023-03-11T23:16:43.672Z,99348.00
2023-03-11T23:21:43.308Z,99351.40
2023-03-11T23:26:42.311Z,99362.20
2023-03-11T23:31:41.888Z,99367.20
2023-03-11T23:36:41.315Z,99368.60
2023-03-11T23:41:40.927Z,99367.20
2023-03-11T23:46:39.747Z,99370.40
2023-03-11T23:51:38.500Z,99362.80
2023-03-11T23:56:37.894Z,99359.80
